Search for airport 
image banner adimage banner adimage banner ad
image banner ad

06IA - Rich Field

Located in Walford, United States

ICAO - 06IA, IATA -

Data provided by Airmate  

General information

Coordinates: N41°50'29" W91°50'4"
Elevation is 880 feet MSL.
Magnetic variation is 01° East
View others Airports in Iowa

Operational data

Special qualification required
Current time UTC:
Current local time:
Weather at : KCID - The Eastern Iowa ( 11 km )
METAR: KCID 181652Z 02006KT 10SM CLR 28/19 A2983 RMK AO2 SLP094 T02830189
TAF: KCID 181243Z 1813/1912 04006KT P6SM SCT150 FM181800 01006KT P6SM SCT200 FM190000 21004KT P6SM SCT200
View NOTAMs / SUP AIP / TFR affecting this airport [VIEW]
Communications frequencies: [VIEW]

Runways:

RWY identifierQFULength (ft)Width (ft)SurfaceLDA (ft)
091750100GRASS
271750100GRASS

Airport contact information

Address: Walford United States

Satellite view of 06IA